sensor_id;sensor_type;location;lat;lon;timestamp;P1;durP1;ratioP1;P2;durP2;ratioP2
52112;SDS011;38109;49.488;31.988;2023-06-14T00:01:35;2.80;;;2.13;;
52112;SDS011;38109;49.488;31.988;2023-06-14T00:04:01;2.55;;;2.22;;
52112;SDS011;38109;49.488;31.988;2023-06-14T00:06:28;3.42;;;2.28;;
52112;SDS011;38109;49.488;31.988;2023-06-14T00:08:54;3.53;;;2.33;;
52112;SDS011;38109;49.488;31.988;2023-06-14T00:11:19;2.70;;;2.00;;
52112;SDS011;38109;49.488;31.988;2023-06-14T00:13:45;5.00;;;2.50;;
52112;SDS011;38109;49.488;31.988;2023-06-14T00:16:11;3.38;;;2.55;;
52112;SDS011;38109;49.488;31.988;2023-06-14T00:18:37;3.53;;;2.63;;
52112;SDS011;38109;49.488;31.988;2023-06-14T00:21:03;4.03;;;2.95;;
52112;SDS011;38109;49.488;31.988;2023-06-14T00:23:29;3.30;;;2.60;;
52112;SDS011;38109;49.488;31.988;2023-06-14T00:25:55;3.67;;;2.63;;
52112;SDS011;38109;49.488;31.988;2023-06-14T00:28:21;3.42;;;2.63;;
52112;SDS011;38109;49.488;31.988;2023-06-14T00:30:47;3.47;;;2.85;;
52112;SDS011;38109;49.488;31.988;2023-06-14T00:33:12;3.33;;;2.40;;
52112;SDS011;38109;49.488;31.988;2023-06-14T00:35:38;3.75;;;2.47;;
52112;SDS011;38109;49.488;31.988;2023-06-14T00:38:04;4.57;;;2.30;;
52112;SDS011;38109;49.488;31.988;2023-06-14T00:40:30;4.05;;;2.83;;
52112;SDS011;38109;49.488;31.988;2023-06-14T00:42:55;3.20;;;2.47;;
52112;SDS011;38109;49.488;31.988;2023-06-14T00:45:21;4.60;;;2.85;;
52112;SDS011;38109;49.488;31.988;2023-06-14T00:47:47;3.58;;;2.67;;
52112;SDS011;38109;49.488;31.988;2023-06-14T00:50:17;3.20;;;2.60;;
52112;SDS011;38109;49.488;31.988;2023-06-14T00:52:43;4.22;;;2.90;;
52112;SDS011;38109;49.488;31.988;2023-06-14T00:55:09;4.32;;;2.60;;
52112;SDS011;38109;49.488;31.988;2023-06-14T00:57:34;4.47;;;3.20;;
52112;SDS011;38109;49.488;31.988;2023-06-14T01:00:03;3.78;;;2.85;;
52112;SDS011;38109;49.488;31.988;2023-06-14T01:02:33;3.92;;;2.70;;
52112;SDS011;38109;49.488;31.988;2023-06-14T01:05:01;4.50;;;2.72;;
52112;SDS011;38109;49.488;31.988;2023-06-14T01:07:33;4.10;;;2.92;;
52112;SDS011;38109;49.488;31.988;2023-06-14T01:13:23;4.63;;;2.88;;
52112;SDS011;38109;49.488;31.988;2023-06-14T01:15:57;3.55;;;2.95;;
52112;SDS011;38109;49.488;31.988;2023-06-14T01:18:24;5.13;;;2.97;;
52112;SDS011;38109;49.488;31.988;2023-06-14T01:20:52;4.32;;;2.70;;
52112;SDS011;38109;49.488;31.988;2023-06-14T01:23:20;4.25;;;3.00;;
52112;SDS011;38109;49.488;31.988;2023-06-14T01:25:47;3.88;;;2.72;;
52112;SDS011;38109;49.488;31.988;2023-06-14T01:28:18;3.95;;;2.92;;
52112;SDS011;38109;49.488;31.988;2023-06-14T01:30:46;4.13;;;2.92;;
52112;SDS011;38109;49.488;31.988;2023-06-14T01:33:15;4.88;;;2.97;;
52112;SDS011;38109;49.488;31.988;2023-06-14T01:35:44;5.43;;;3.25;;
52112;SDS011;38109;49.488;31.988;2023-06-14T01:38:13;5.07;;;3.00;;
52112;SDS011;38109;49.488;31.988;2023-06-14T01:40:40;4.05;;;2.83;;
52112;SDS011;38109;49.488;31.988;2023-06-14T01:43:07;3.45;;;2.70;;
52112;SDS011;38109;49.488;31.988;2023-06-14T01:45:34;3.95;;;2.58;;
52112;SDS011;38109;49.488;31.988;2023-06-14T01:48:01;3.88;;;2.72;;
52112;SDS011;38109;49.488;31.988;2023-06-14T01:50:28;4.05;;;2.60;;
52112;SDS011;38109;49.488;31.988;2023-06-14T01:52:55;6.65;;;2.60;;
52112;SDS011;38109;49.488;31.988;2023-06-14T01:55:21;3.90;;;2.85;;
52112;SDS011;38109;49.488;31.988;2023-06-14T01:57:47;3.83;;;2.95;;
52112;SDS011;38109;49.488;31.988;2023-06-14T02:00:13;3.35;;;2.50;;
52112;SDS011;38109;49.488;31.988;2023-06-14T02:02:41;4.38;;;3.03;;
52112;SDS011;38109;49.488;31.988;2023-06-14T02:05:06;3.22;;;2.80;;
52112;SDS011;38109;49.488;31.988;2023-06-14T02:07:32;3.03;;;2.70;;
52112;SDS011;38109;49.488;31.988;2023-06-14T02:09:58;4.82;;;3.00;;
52112;SDS011;38109;49.488;31.988;2023-06-14T02:12:24;3.13;;;2.40;;
52112;SDS011;38109;49.488;31.988;2023-06-14T02:14:50;4.00;;;3.00;;
52112;SDS011;38109;49.488;31.988;2023-06-14T02:17:16;6.25;;;2.78;;
52112;SDS011;38109;49.488;31.988;2023-06-14T02:19:42;3.15;;;2.45;;
52112;SDS011;38109;49.488;31.988;2023-06-14T02:22:08;4.75;;;2.97;;
52112;SDS011;38109;49.488;31.988;2023-06-14T02:24:33;3.80;;;2.88;;
52112;SDS011;38109;49.488;31.988;2023-06-14T02:27:00;3.45;;;2.65;;
52112;SDS011;38109;49.488;31.988;2023-06-14T02:29:26;3.53;;;3.03;;
52112;SDS011;38109;49.488;31.988;2023-06-14T02:31:52;3.22;;;2.50;;
52112;SDS011;38109;49.488;31.988;2023-06-14T02:34:17;3.72;;;2.53;;
52112;SDS011;38109;49.488;31.988;2023-06-14T02:36:44;3.38;;;2.50;;
52112;SDS011;38109;49.488;31.988;2023-06-14T02:39:11;4.72;;;2.60;;
52112;SDS011;38109;49.488;31.988;2023-06-14T02:41:36;2.88;;;2.53;;
52112;SDS011;38109;49.488;31.988;2023-06-14T02:44:02;2.95;;;2.30;;
52112;SDS011;38109;49.488;31.988;2023-06-14T02:46:28;3.70;;;2.75;;
52112;SDS011;38109;49.488;31.988;2023-06-14T02:48:54;3.50;;;2.70;;
52112;SDS011;38109;49.488;31.988;2023-06-14T02:51:19;3.38;;;2.58;;
52112;SDS011;38109;49.488;31.988;2023-06-14T02:53:45;3.20;;;2.30;;
52112;SDS011;38109;49.488;31.988;2023-06-14T02:56:10;2.67;;;2.13;;
52112;SDS011;38109;49.488;31.988;2023-06-14T02:58:37;3.25;;;2.35;;
52112;SDS011;38109;49.488;31.988;2023-06-14T03:01:04;4.13;;;2.80;;
52112;SDS011;38109;49.488;31.988;2023-06-14T03:03:30;3.35;;;2.40;;
52112;SDS011;38109;49.488;31.988;2023-06-14T03:05:56;3.38;;;2.42;;
52112;SDS011;38109;49.488;31.988;2023-06-14T03:08:22;3.47;;;2.58;;
52112;SDS011;38109;49.488;31.988;2023-06-14T03:10:52;2.58;;;2.28;;
52112;SDS011;38109;49.488;31.988;2023-06-14T03:13:18;4.25;;;2.63;;
52112;SDS011;38109;49.488;31.988;2023-06-14T03:15:47;4.72;;;2.60;;
52112;SDS011;38109;49.488;31.988;2023-06-14T03:18:15;2.92;;;2.53;;
52112;SDS011;38109;49.488;31.988;2023-06-14T03:20:41;3.30;;;2.63;;
52112;SDS011;38109;49.488;31.988;2023-06-14T03:23:08;3.22;;;2.55;;
52112;SDS011;38109;49.488;31.988;2023-06-14T03:25:34;3.65;;;2.05;;
52112;SDS011;38109;49.488;31.988;2023-06-14T03:28:03;3.70;;;2.65;;
52112;SDS011;38109;49.488;31.988;2023-06-14T03:30:31;3.08;;;2.22;;
52112;SDS011;38109;49.488;31.988;2023-06-14T03:32:57;4.43;;;2.92;;
52112;SDS011;38109;49.488;31.988;2023-06-14T03:35:26;4.20;;;2.83;;
52112;SDS011;38109;49.488;31.988;2023-06-14T03:37:52;3.80;;;2.85;;
52112;SDS011;38109;49.488;31.988;2023-06-14T03:40:18;5.88;;;3.13;;
52112;SDS011;38109;49.488;31.988;2023-06-14T03:42:45;4.20;;;2.80;;
52112;SDS011;38109;49.488;31.988;2023-06-14T03:45:10;2.72;;;2.33;;
52112;SDS011;38109;49.488;31.988;2023-06-14T03:47:36;3.50;;;2.40;;
52112;SDS011;38109;49.488;31.988;2023-06-14T03:50:02;4.13;;;2.75;;
52112;SDS011;38109;49.488;31.988;2023-06-14T03:52:28;4.75;;;2.70;;
52112;SDS011;38109;49.488;31.988;2023-06-14T03:54:54;3.42;;;2.78;;
52112;SDS011;38109;49.488;31.988;2023-06-14T03:57:21;3.53;;;2.42;;
52112;SDS011;38109;49.488;31.988;2023-06-14T03:59:48;3.97;;;2.70;;
52112;SDS011;38109;49.488;31.988;2023-06-14T04:02:15;3.40;;;2.47;;
52112;SDS011;38109;49.488;31.988;2023-06-14T04:04:41;3.70;;;2.80;;
52112;SDS011;38109;49.488;31.988;2023-06-14T04:07:12;4.00;;;3.13;;
52112;SDS011;38109;49.488;31.988;2023-06-14T04:09:38;4.30;;;2.80;;
52112;SDS011;38109;49.488;31.988;2023-06-14T04:12:04;3.67;;;2.30;;
52112;SDS011;38109;49.488;31.988;2023-06-14T04:14:30;3.15;;;2.40;;
52112;SDS011;38109;49.488;31.988;2023-06-14T04:16:58;5.82;;;2.40;;
52112;SDS011;38109;49.488;31.988;2023-06-14T04:19:24;4.15;;;3.00;;
52112;SDS011;38109;49.488;31.988;2023-06-14T04:21:49;4.18;;;3.13;;
52112;SDS011;38109;49.488;31.988;2023-06-14T04:24:15;4.32;;;3.00;;
52112;SDS011;38109;49.488;31.988;2023-06-14T04:26:41;3.53;;;2.90;;
52112;SDS011;38109;49.488;31.988;2023-06-14T04:29:13;3.33;;;2.87;;
52112;SDS011;38109;49.488;31.988;2023-06-14T04:31:41;3.50;;;2.35;;
52112;SDS011;38109;49.488;31.988;2023-06-14T04:34:07;2.47;;;2.22;;
52112;SDS011;38109;49.488;31.988;2023-06-14T04:36:33;3.72;;;3.05;;
52112;SDS011;38109;49.488;31.988;2023-06-14T04:39:01;3.97;;;2.80;;
52112;SDS011;38109;49.488;31.988;2023-06-14T04:41:29;4.80;;;3.20;;
52112;SDS011;38109;49.488;31.988;2023-06-14T04:44:00;3.50;;;2.75;;
52112;SDS011;38109;49.488;31.988;2023-06-14T04:46:27;5.13;;;2.80;;
52112;SDS011;38109;49.488;31.988;2023-06-14T04:48:53;6.32;;;2.97;;
52112;SDS011;38109;49.488;31.988;2023-06-14T04:51:20;4.57;;;2.72;;
52112;SDS011;38109;49.488;31.988;2023-06-14T04:53:54;4.22;;;3.00;;
52112;SDS011;38109;49.488;31.988;2023-06-14T04:56:23;6.75;;;2.90;;
52112;SDS011;38109;49.488;31.988;2023-06-14T04:58:50;4.75;;;3.10;;
52112;SDS011;38109;49.488;31.988;2023-06-14T05:01:16;3.85;;;2.90;;
52112;SDS011;38109;49.488;31.988;2023-06-14T05:03:41;5.68;;;3.58;;
52112;SDS011;38109;49.488;31.988;2023-06-14T05:06:10;5.75;;;3.30;;
52112;SDS011;38109;49.488;31.988;2023-06-14T05:08:36;3.58;;;2.97;;
52112;SDS011;38109;49.488;31.988;2023-06-14T05:11:02;4.32;;;3.28;;
52112;SDS011;38109;49.488;31.988;2023-06-14T05:13:28;3.30;;;2.65;;
52112;SDS011;38109;49.488;31.988;2023-06-14T05:15:53;5.68;;;2.90;;
52112;SDS011;38109;49.488;31.988;2023-06-14T05:18:19;4.45;;;2.67;;
52112;SDS011;38109;49.488;31.988;2023-06-14T05:20:45;4.35;;;2.72;;
52112;SDS011;38109;49.488;31.988;2023-06-14T05:23:11;4.53;;;3.00;;
52112;SDS011;38109;49.488;31.988;2023-06-14T05:25:41;6.35;;;3.53;;
52112;SDS011;38109;49.488;31.988;2023-06-14T05:28:10;4.57;;;3.30;;
52112;SDS011;38109;49.488;31.988;2023-06-14T05:30:37;4.05;;;3.15;;
52112;SDS011;38109;49.488;31.988;2023-06-14T05:33:04;5.63;;;3.63;;
52112;SDS011;38109;49.488;31.988;2023-06-14T05:35:30;4.07;;;3.10;;
52112;SDS011;38109;49.488;31.988;2023-06-14T05:37:56;6.03;;;2.90;;
52112;SDS011;38109;49.488;31.988;2023-06-14T05:40:21;4.82;;;3.33;;
52112;SDS011;38109;49.488;31.988;2023-06-14T05:42:47;3.35;;;2.70;;
52112;SDS011;38109;49.488;31.988;2023-06-14T05:45:12;4.15;;;2.75;;
52112;SDS011;38109;49.488;31.988;2023-06-14T05:47:40;5.13;;;3.17;;
52112;SDS011;38109;49.488;31.988;2023-06-14T05:50:06;4.43;;;3.03;;
52112;SDS011;38109;49.488;31.988;2023-06-14T05:52:33;3.35;;;2.67;;
52112;SDS011;38109;49.488;31.988;2023-06-14T05:55:00;4.00;;;2.55;;
52112;SDS011;38109;49.488;31.988;2023-06-14T05:57:26;3.42;;;2.78;;
52112;SDS011;38109;49.488;31.988;2023-06-14T05:59:52;3.58;;;2.75;;
52112;SDS011;38109;49.488;31.988;2023-06-14T06:02:18;4.28;;;2.75;;
52112;SDS011;38109;49.488;31.988;2023-06-14T06:04:43;6.75;;;2.97;;
52112;SDS011;38109;49.488;31.988;2023-06-14T06:07:09;3.58;;;2.58;;
52112;SDS011;38109;49.488;31.988;2023-06-14T06:09:35;3.92;;;2.60;;
52112;SDS011;38109;49.488;31.988;2023-06-14T06:12:00;4.47;;;2.90;;
52112;SDS011;38109;49.488;31.988;2023-06-14T06:14:26;3.70;;;2.80;;
52112;SDS011;38109;49.488;31.988;2023-06-14T06:16:52;4.43;;;2.58;;
52112;SDS011;38109;49.488;31.988;2023-06-14T06:19:18;4.45;;;2.30;;
52112;SDS011;38109;49.488;31.988;2023-06-14T06:21:44;3.95;;;2.70;;
52112;SDS011;38109;49.488;31.988;2023-06-14T06:24:09;3.78;;;2.63;;
52112;SDS011;38109;49.488;31.988;2023-06-14T06:26:35;3.97;;;2.58;;
52112;SDS011;38109;49.488;31.988;2023-06-14T06:29:01;3.70;;;2.97;;
52112;SDS011;38109;49.488;31.988;2023-06-14T06:31:27;3.30;;;2.60;;
52112;SDS011;38109;49.488;31.988;2023-06-14T06:33:53;4.60;;;3.35;;
52112;SDS011;38109;49.488;31.988;2023-06-14T06:36:19;4.45;;;2.78;;
52112;SDS011;38109;49.488;31.988;2023-06-14T06:38:46;4.72;;;2.88;;
52112;SDS011;38109;49.488;31.988;2023-06-14T06:41:12;4.22;;;2.85;;
52112;SDS011;38109;49.488;31.988;2023-06-14T06:43:38;2.97;;;2.35;;
52112;SDS011;38109;49.488;31.988;2023-06-14T06:46:04;4.28;;;3.05;;
52112;SDS011;38109;49.488;31.988;2023-06-14T06:48:29;3.25;;;2.50;;
52112;SDS011;38109;49.488;31.988;2023-06-14T06:50:55;3.10;;;2.45;;
52112;SDS011;38109;49.488;31.988;2023-06-14T06:53:21;4.65;;;2.58;;
52112;SDS011;38109;49.488;31.988;2023-06-14T06:55:47;4.57;;;3.10;;
52112;SDS011;38109;49.488;31.988;2023-06-14T06:58:13;5.45;;;2.75;;
52112;SDS011;38109;49.488;31.988;2023-06-14T07:00:39;3.30;;;2.80;;
52112;SDS011;38109;49.488;31.988;2023-06-14T07:03:05;3.97;;;3.10;;
52112;SDS011;38109;49.488;31.988;2023-06-14T07:05:30;4.13;;;3.13;;
52112;SDS011;38109;49.488;31.988;2023-06-14T07:07:57;4.13;;;3.08;;
52112;SDS011;38109;49.488;31.988;2023-06-14T07:10:23;4.47;;;3.08;;
52112;SDS011;38109;49.488;31.988;2023-06-14T07:12:49;4.30;;;2.80;;
52112;SDS011;38109;49.488;31.988;2023-06-14T07:15:17;4.43;;;3.30;;
52112;SDS011;38109;49.488;31.988;2023-06-14T07:17:43;4.22;;;2.90;;
52112;SDS011;38109;49.488;31.988;2023-06-14T07:20:09;4.50;;;3.10;;
52112;SDS011;38109;49.488;31.988;2023-06-14T07:22:39;4.63;;;3.20;;
52112;SDS011;38109;49.488;31.988;2023-06-14T07:25:08;5.88;;;2.80;;
52112;SDS011;38109;49.488;31.988;2023-06-14T07:27:37;5.63;;;3.15;;
52112;SDS011;38109;49.488;31.988;2023-06-14T07:30:03;3.40;;;2.80;;
52112;SDS011;38109;49.488;31.988;2023-06-14T07:32:29;2.60;;;2.35;;
52112;SDS011;38109;49.488;31.988;2023-06-14T07:34:55;3.75;;;2.75;;
52112;SDS011;38109;49.488;31.988;2023-06-14T07:37:21;4.03;;;3.15;;
52112;SDS011;38109;49.488;31.988;2023-06-14T07:39:46;4.03;;;2.78;;
52112;SDS011;38109;49.488;31.988;2023-06-14T07:42:12;4.13;;;2.90;;
52112;SDS011;38109;49.488;31.988;2023-06-14T07:44:38;3.55;;;2.47;;
52112;SDS011;38109;49.488;31.988;2023-06-14T07:47:03;4.60;;;3.17;;
52112;SDS011;38109;49.488;31.988;2023-06-14T07:49:29;3.92;;;2.72;;
52112;SDS011;38109;49.488;31.988;2023-06-14T07:51:55;3.08;;;2.53;;
52112;SDS011;38109;49.488;31.988;2023-06-14T07:54:21;6.85;;;2.65;;
52112;SDS011;38109;49.488;31.988;2023-06-14T07:56:51;3.85;;;2.72;;
52112;SDS011;38109;49.488;31.988;2023-06-14T07:59:17;3.55;;;2.55;;
52112;SDS011;38109;49.488;31.988;2023-06-14T08:01:42;4.07;;;3.05;;
52112;SDS011;38109;49.488;31.988;2023-06-14T08:04:12;3.63;;;2.88;;
52112;SDS011;38109;49.488;31.988;2023-06-14T08:06:38;4.53;;;3.25;;
52112;SDS011;38109;49.488;31.988;2023-06-14T08:09:04;3.92;;;2.63;;
52112;SDS011;38109;49.488;31.988;2023-06-14T08:11:30;3.80;;;2.50;;
52112;SDS011;38109;49.488;31.988;2023-06-14T08:13:56;4.22;;;2.67;;
52112;SDS011;38109;49.488;31.988;2023-06-14T08:16:22;2.85;;;2.38;;
52112;SDS011;38109;49.488;31.988;2023-06-14T08:18:48;4.95;;;2.80;;
52112;SDS011;38109;49.488;31.988;2023-06-14T08:21:14;2.95;;;2.60;;
52112;SDS011;38109;49.488;31.988;2023-06-14T08:23:40;4.07;;;2.67;;
52112;SDS011;38109;49.488;31.988;2023-06-14T08:26:08;3.30;;;2.53;;
52112;SDS011;38109;49.488;31.988;2023-06-14T08:28:34;3.75;;;2.50;;
52112;SDS011;38109;49.488;31.988;2023-06-14T08:30:59;3.40;;;2.88;;
52112;SDS011;38109;49.488;31.988;2023-06-14T08:33:25;3.78;;;2.60;;
52112;SDS011;38109;49.488;31.988;2023-06-14T08:35:51;3.42;;;2.42;;
52112;SDS011;38109;49.488;31.988;2023-06-14T08:38:16;4.28;;;2.90;;
52112;SDS011;38109;49.488;31.988;2023-06-14T08:40:42;2.92;;;2.58;;
52112;SDS011;38109;49.488;31.988;2023-06-14T08:43:08;3.47;;;2.80;;
52112;SDS011;38109;49.488;31.988;2023-06-14T08:45:34;3.90;;;2.90;;
52112;SDS011;38109;49.488;31.988;2023-06-14T08:47:59;3.85;;;2.75;;
52112;SDS011;38109;49.488;31.988;2023-06-14T08:50:26;3.45;;;2.55;;
52112;SDS011;38109;49.488;31.988;2023-06-14T08:52:57;3.80;;;2.50;;
52112;SDS011;38109;49.488;31.988;2023-06-14T08:55:27;5.18;;;3.03;;
52112;SDS011;38109;49.488;31.988;2023-06-14T08:57:55;3.42;;;2.50;;
52112;SDS011;38109;49.488;31.988;2023-06-14T09:00:25;5.60;;;2.53;;
52112;SDS011;38109;49.488;31.988;2023-06-14T09:02:52;3.75;;;2.45;;
52112;SDS011;38109;49.488;31.988;2023-06-14T09:05:25;4.00;;;2.88;;
52112;SDS011;38109;49.488;31.988;2023-06-14T09:07:51;4.95;;;2.80;;
52112;SDS011;38109;49.488;31.988;2023-06-14T09:10:17;4.82;;;2.38;;
52112;SDS011;38109;49.488;31.988;2023-06-14T09:12:43;2.90;;;2.38;;
52112;SDS011;38109;49.488;31.988;2023-06-14T09:15:09;2.83;;;2.30;;
52112;SDS011;38109;49.488;31.988;2023-06-14T09:17:35;2.85;;;2.20;;
52112;SDS011;38109;49.488;31.988;2023-06-14T09:20:02;5.00;;;2.92;;
52112;SDS011;38109;49.488;31.988;2023-06-14T09:22:33;4.55;;;2.63;;
52112;SDS011;38109;49.488;31.988;2023-06-14T09:24:59;2.42;;;2.10;;
52112;SDS011;38109;49.488;31.988;2023-06-14T09:27:28;2.78;;;2.17;;
52112;SDS011;38109;49.488;31.988;2023-06-14T09:29:55;3.08;;;2.20;;
52112;SDS011;38109;49.488;31.988;2023-06-14T09:32:24;2.97;;;2.35;;
52112;SDS011;38109;49.488;31.988;2023-06-14T09:34:50;2.97;;;2.35;;
52112;SDS011;38109;49.488;31.988;2023-06-14T09:37:29;2.20;;;1.90;;
52112;SDS011;38109;49.488;31.988;2023-06-14T09:39:55;2.30;;;2.10;;
52112;SDS011;38109;49.488;31.988;2023-06-14T09:42:22;2.50;;;1.83;;
52112;SDS011;38109;49.488;31.988;2023-06-14T09:44:51;2.20;;;2.00;;
52112;SDS011;38109;49.488;31.988;2023-06-14T09:47:18;2.42;;;1.95;;
52112;SDS011;38109;49.488;31.988;2023-06-14T09:49:45;3.10;;;2.20;;
52112;SDS011;38109;49.488;31.988;2023-06-14T09:52:12;2.13;;;1.85;;
52112;SDS011;38109;49.488;31.988;2023-06-14T09:54:41;2.40;;;2.17;;
52112;SDS011;38109;49.488;31.988;2023-06-14T09:57:08;2.55;;;2.28;;
52112;SDS011;38109;49.488;31.988;2023-06-14T09:59:45;2.17;;;1.95;;
52112;SDS011;38109;49.488;31.988;2023-06-14T10:04:53;2.67;;;2.05;;
52112;SDS011;38109;49.488;31.988;2023-06-14T10:07:30;2.08;;;1.80;;
52112;SDS011;38109;49.488;31.988;2023-06-14T10:10:04;2.05;;;1.80;;
52112;SDS011;38109;49.488;31.988;2023-06-14T10:12:30;2.17;;;1.98;;
52112;SDS011;38109;49.488;31.988;2023-06-14T10:14:56;1.85;;;1.70;;
52112;SDS011;38109;49.488;31.988;2023-06-14T10:23:10;2.30;;;2.10;;
52112;SDS011;38109;49.488;31.988;2023-06-14T10:25:42;2.20;;;2.00;;
52112;SDS011;38109;49.488;31.988;2023-06-14T10:28:21;2.05;;;1.85;;
52112;SDS011;38109;49.488;31.988;2023-06-14T10:31:09;1.80;;;1.70;;
52112;SDS011;38109;49.488;31.988;2023-06-14T10:33:39;2.47;;;2.10;;
52112;SDS011;38109;49.488;31.988;2023-06-14T10:57:10;2.15;;;1.95;;
52112;SDS011;38109;49.488;31.988;2023-06-14T11:11:00;2.75;;;2.22;;
52112;SDS011;38109;49.488;31.988;2023-06-14T11:13:30;2.60;;;2.13;;
52112;SDS011;38109;49.488;31.988;2023-06-14T11:15:56;2.72;;;2.10;;
52112;SDS011;38109;49.488;31.988;2023-06-14T11:18:22;2.53;;;2.08;;
52112;SDS011;38109;49.488;31.988;2023-06-14T11:20:54;2.30;;;2.10;;
52112;SDS011;38109;49.488;31.988;2023-06-14T11:23:21;2.42;;;2.13;;
52112;SDS011;38109;49.488;31.988;2023-06-14T11:25:50;2.45;;;2.10;;
52112;SDS011;38109;49.488;31.988;2023-06-14T11:28:16;2.05;;;1.90;;
52112;SDS011;38109;49.488;31.988;2023-06-14T11:30:44;2.10;;;1.90;;
52112;SDS011;38109;49.488;31.988;2023-06-14T11:33:11;2.13;;;1.92;;
52112;SDS011;38109;49.488;31.988;2023-06-14T11:35:43;2.10;;;1.92;;
52112;SDS011;38109;49.488;31.988;2023-06-14T11:38:10;2.28;;;2.08;;
52112;SDS011;38109;49.488;31.988;2023-06-14T11:40:37;2.50;;;1.98;;
52112;SDS011;38109;49.488;31.988;2023-06-14T11:43:04;2.15;;;1.95;;
52112;SDS011;38109;49.488;31.988;2023-06-14T11:45:30;3.33;;;2.22;;
52112;SDS011;38109;49.488;31.988;2023-06-14T11:47:56;1.98;;;1.88;;
52112;SDS011;38109;49.488;31.988;2023-06-14T11:50:23;1.95;;;1.80;;
52112;SDS011;38109;49.488;31.988;2023-06-14T11:52:56;2.78;;;1.80;;
52112;SDS011;38109;49.488;31.988;2023-06-14T11:55:25;2.25;;;1.98;;
52112;SDS011;38109;49.488;31.988;2023-06-14T11:57:51;3.10;;;2.22;;
52112;SDS011;38109;49.488;31.988;2023-06-14T12:00:22;2.78;;;1.88;;
52112;SDS011;38109;49.488;31.988;2023-06-14T12:02:53;2.63;;;2.15;;
52112;SDS011;38109;49.488;31.988;2023-06-14T12:05:21;2.20;;;1.98;;
52112;SDS011;38109;49.488;31.988;2023-06-14T12:07:48;2.33;;;2.00;;
52112;SDS011;38109;49.488;31.988;2023-06-14T12:10:15;2.60;;;2.20;;
52112;SDS011;38109;49.488;31.988;2023-06-14T12:12:41;2.30;;;2.00;;
52112;SDS011;38109;49.488;31.988;2023-06-14T12:15:08;1.90;;;1.80;;
52112;SDS011;38109;49.488;31.988;2023-06-14T12:17:36;2.22;;;1.77;;
52112;SDS011;38109;49.488;31.988;2023-06-14T12:20:07;1.80;;;1.70;;
52112;SDS011;38109;49.488;31.988;2023-06-14T12:29:27;2.15;;;1.95;;
52112;SDS011;38109;49.488;31.988;2023-06-14T12:31:53;2.40;;;1.95;;
52112;SDS011;38109;49.488;31.988;2023-06-14T12:34:21;4.43;;;2.10;;
52112;SDS011;38109;49.488;31.988;2023-06-14T12:36:55;2.47;;;2.00;;
52112;SDS011;38109;49.488;31.988;2023-06-14T12:42:44;2.40;;;1.97;;
52112;SDS011;38109;49.488;31.988;2023-06-14T12:48:53;2.00;;;1.70;;
52112;SDS011;38109;49.488;31.988;2023-06-14T12:51:18;2.80;;;1.80;;
52112;SDS011;38109;49.488;31.988;2023-06-14T12:53:44;2.45;;;1.70;;
52112;SDS011;38109;49.488;31.988;2023-06-14T13:03:09;2.15;;;1.90;;
52112;SDS011;38109;49.488;31.988;2023-06-14T13:15:28;2.38;;;2.17;;
52112;SDS011;38109;49.488;31.988;2023-06-14T13:21:16;4.57;;;2.30;;
52112;SDS011;38109;49.488;31.988;2023-06-14T13:23:41;2.70;;;1.98;;
52112;SDS011;38109;49.488;31.988;2023-06-14T13:26:07;2.30;;;2.10;;
52112;SDS011;38109;49.488;31.988;2023-06-14T13:28:33;2.55;;;2.35;;
52112;SDS011;38109;49.488;31.988;2023-06-14T13:31:00;3.00;;;2.30;;
52112;SDS011;38109;49.488;31.988;2023-06-14T13:33:26;2.42;;;2.20;;
52112;SDS011;38109;49.488;31.988;2023-06-14T13:35:52;2.67;;;2.25;;
52112;SDS011;38109;49.488;31.988;2023-06-14T13:38:18;2.40;;;2.20;;
52112;SDS011;38109;49.488;31.988;2023-06-14T13:40:44;2.65;;;2.28;;
52112;SDS011;38109;49.488;31.988;2023-06-14T13:43:09;3.45;;;2.40;;
52112;SDS011;38109;49.488;31.988;2023-06-14T13:45:35;2.85;;;2.40;;
52112;SDS011;38109;49.488;31.988;2023-06-14T13:48:01;2.40;;;2.10;;
52112;SDS011;38109;49.488;31.988;2023-06-14T13:50:27;2.70;;;2.50;;
52112;SDS011;38109;49.488;31.988;2023-06-14T13:52:52;2.35;;;2.00;;
52112;SDS011;38109;49.488;31.988;2023-06-14T13:55:18;2.17;;;2.05;;
52112;SDS011;38109;49.488;31.988;2023-06-14T13:57:44;2.45;;;2.25;;
52112;SDS011;38109;49.488;31.988;2023-06-14T14:00:10;2.80;;;2.33;;
52112;SDS011;38109;49.488;31.988;2023-06-14T14:02:37;2.67;;;2.40;;
52112;SDS011;38109;49.488;31.988;2023-06-14T14:05:04;2.17;;;1.98;;
52112;SDS011;38109;49.488;31.988;2023-06-14T14:07:30;2.67;;;2.33;;
52112;SDS011;38109;49.488;31.988;2023-06-14T14:09:56;3.03;;;2.00;;
52112;SDS011;38109;49.488;31.988;2023-06-14T14:12:22;2.50;;;2.30;;
52112;SDS011;38109;49.488;31.988;2023-06-14T14:14:48;2.28;;;2.08;;
52112;SDS011;38109;49.488;31.988;2023-06-14T14:17:15;2.70;;;2.00;;
52112;SDS011;38109;49.488;31.988;2023-06-14T14:19:41;3.22;;;2.40;;
52112;SDS011;38109;49.488;31.988;2023-06-14T14:22:06;2.67;;;2.20;;
52112;SDS011;38109;49.488;31.988;2023-06-14T14:24:32;2.40;;;2.17;;
52112;SDS011;38109;49.488;31.988;2023-06-14T14:26:58;2.35;;;2.15;;
52112;SDS011;38109;49.488;31.988;2023-06-14T14:29:25;5.22;;;2.40;;
52112;SDS011;38109;49.488;31.988;2023-06-14T14:31:54;2.42;;;2.20;;
52112;SDS011;38109;49.488;31.988;2023-06-14T14:34:20;2.70;;;2.38;;
52112;SDS011;38109;49.488;31.988;2023-06-14T14:36:46;6.03;;;2.60;;
52112;SDS011;38109;49.488;31.988;2023-06-14T14:39:12;2.28;;;2.08;;
52112;SDS011;38109;49.488;31.988;2023-06-14T14:41:37;2.67;;;2.47;;
52112;SDS011;38109;49.488;31.988;2023-06-14T14:44:05;2.47;;;2.08;;
52112;SDS011;38109;49.488;31.988;2023-06-14T14:46:31;2.92;;;2.33;;
52112;SDS011;38109;49.488;31.988;2023-06-14T14:48:56;3.08;;;2.35;;
52112;SDS011;38109;49.488;31.988;2023-06-14T14:51:23;2.97;;;2.17;;
52112;SDS011;38109;49.488;31.988;2023-06-14T14:53:49;2.67;;;2.47;;
52112;SDS011;38109;49.488;31.988;2023-06-14T14:56:14;2.60;;;2.28;;
52112;SDS011;38109;49.488;31.988;2023-06-14T14:58:40;2.75;;;2.25;;
52112;SDS011;38109;49.488;31.988;2023-06-14T15:01:06;2.92;;;2.20;;
52112;SDS011;38109;49.488;31.988;2023-06-14T15:03:32;3.88;;;2.25;;
52112;SDS011;38109;49.488;31.988;2023-06-14T15:05:57;2.33;;;2.13;;
52112;SDS011;38109;49.488;31.988;2023-06-14T15:08:23;2.85;;;2.30;;
52112;SDS011;38109;49.488;31.988;2023-06-14T15:10:49;3.65;;;2.20;;
52112;SDS011;38109;49.488;31.988;2023-06-14T15:13:14;2.88;;;2.33;;
52112;SDS011;38109;49.488;31.988;2023-06-14T15:15:40;2.33;;;2.10;;
52112;SDS011;38109;49.488;31.988;2023-06-14T15:18:06;2.47;;;2.28;;
52112;SDS011;38109;49.488;31.988;2023-06-14T15:20:32;3.03;;;2.22;;
52112;SDS011;38109;49.488;31.988;2023-06-14T15:22:57;2.40;;;2.20;;
52112;SDS011;38109;49.488;31.988;2023-06-14T15:25:26;2.80;;;2.38;;
52112;SDS011;38109;49.488;31.988;2023-06-14T15:27:52;2.08;;;1.88;;
52112;SDS011;38109;49.488;31.988;2023-06-14T15:30:18;3.72;;;2.00;;
52112;SDS011;38109;49.488;31.988;2023-06-14T15:32:44;3.42;;;2.63;;
52112;SDS011;38109;49.488;31.988;2023-06-14T15:35:10;3.15;;;2.22;;
52112;SDS011;38109;49.488;31.988;2023-06-14T15:37:37;2.40;;;2.20;;
52112;SDS011;38109;49.488;31.988;2023-06-14T15:40:03;2.58;;;2.38;;
52112;SDS011;38109;49.488;31.988;2023-06-14T15:42:30;2.20;;;2.00;;
52112;SDS011;38109;49.488;31.988;2023-06-14T15:44:55;2.50;;;2.30;;
52112;SDS011;38109;49.488;31.988;2023-06-14T15:47:21;3.85;;;1.90;;
52112;SDS011;38109;49.488;31.988;2023-06-14T15:49:47;2.40;;;2.00;;